Time;durP1;ratioP1;P1;durP2;ratioP2;P2;SDS_P1;SDS_P2;PMS_P1;PMS_P2;Temp;Humidity;BMP_temperature;BMP_pressure;BME280_temperature;BME280_humidity;BME280_pressure;Samples;Min_cycle;Max_cycle;Signal;HPM_P1;HPM_P2
2023/09/18 00:02:24;;;;;;;0.00;0.00;;;;;;;22.20;79.63;99889.06;4992980;28;20225;-79
2023/09/18 00:04:49;;;;;;;0.00;0.00;;;;;;;22.21;80.85;99889.88;4993827;28;20292;-79
2023/09/18 00:07:14;;;;;;;0.00;0.00;;;;;;;22.39;80.31;99898.13;4996442;28;20244;-79
2023/09/18 00:09:40;;;;;;;0.00;0.00;;;;;;;22.18;80.03;99885.91;4996569;28;20181;-78
2023/09/18 00:12:06;;;;;;;0.10;0.10;;;;;;;21.88;80.68;99872.47;4997103;28;20231;-79
2023/09/18 00:14:31;;;;;;;0.00;0.00;;;;;;;21.42;82.93;99847.56;4998156;28;20197;-79
2023/09/18 00:16:57;;;;;;;0.00;0.00;;;;;;;21.36;83.94;99836.03;4998679;28;20547;-79
2023/09/18 00:19:22;;;;;;;0.30;0.23;;;;;;;;;;4996559;28;20177;-79
2023/09/18 00:21:48;;;;;;;0.00;0.00;;;;;;;21.69;84.17;99845.09;4997452;28;20324;-79
2023/09/18 00:24:13;;;;;;;0.00;0.00;;;;;;;21.93;83.61;99863.69;4996698;28;20208;-78
2023/09/18 00:26:38;;;;;;;0.00;0.00;;;;;;;21.89;83.08;99857.38;4996765;28;20177;-78
2023/09/18 00:29:03;;;;;;;0.00;0.00;;;;;;;21.98;82.49;99843.81;4997195;28;20213;-78
2023/09/18 00:31:29;;;;;;;0.00;0.00;;;;;;;21.93;82.49;99837.88;4995212;28;20189;-79
2023/09/18 00:33:54;;;;;;;0.00;0.00;;;;;;;21.88;82.39;99832.72;4996468;28;20201;-79
2023/09/18 00:36:19;;;;;;;0.00;0.00;;;;;;;21.95;82.01;99827.91;4995071;28;20267;-78
2023/09/18 00:38:46;;;;;;;0.00;0.00;;;;;;;21.89;81.90;99821.19;4994515;28;20717;-77
2023/09/18 00:41:11;;;;;;;0.53;0.53;;;;;;;21.95;81.38;99827.91;4995160;28;20224;-79
2023/09/18 00:43:37;;;;;;;0.00;0.00;;;;;;;22.10;81.08;99833.47;4994517;28;20238;-79
2023/09/18 00:46:03;;;;;;;1.03;1.03;;;;;;;21.96;80.99;99821.16;4994488;28;20193;-79
2023/09/18 00:48:28;;;;;;;0.00;0.00;;;;;;;22.00;80.50;99810.03;4996354;28;20644;-79
2023/09/18 00:50:54;;;;;;;0.00;0.00;;;;;;;22.02;79.93;99807.63;4995026;28;20224;-79
2023/09/18 00:53:23;;;;;;;0.00;0.00;;;;;;;22.12;79.35;99798.47;4995852;28;20741;-76
2023/09/18 00:55:52;;;;;;;0.00;0.00;;;;;;;22.28;78.78;99800.78;4995225;28;20174;-77
2023/09/18 00:58:17;;;;;;;0.00;0.00;;;;;;;22.34;78.42;99810.28;4995625;28;20272;-78
2023/09/18 01:00:44;;;;;;;0.00;0.00;;;;;;;22.22;78.24;99791.25;4993667;28;20336;-77
2023/09/18 01:03:09;;;;;;;0.00;0.00;;;;;;;22.29;78.29;99787.66;4995797;28;20210;-79
2023/09/18 01:05:35;;;;;;;0.63;0.40;;;;;;;22.52;77.70;99787.88;4995169;28;20710;-79
2023/09/18 01:08:01;;;;;;;0.00;0.00;;;;;;;22.53;77.01;99779.13;4995335;28;20181;-79
2023/09/18 01:10:34;;;;;;;0.00;0.00;;;;;;;22.56;76.72;99783.09;4993342;28;20190;-77
2023/09/18 01:13:13;;;;;;;0.10;0.10;;;;;;;22.49;76.60;99761.66;4996874;28;20205;-79
2023/09/18 01:15:57;;;;;;;0.00;0.00;;;;;;;22.31;77.23;99763.78;5000189;28;20177;-79
2023/09/18 01:18:23;;;;;;;0.00;0.00;;;;;;;22.45;77.38;99769.25;4996539;28;20185;-79
2023/09/18 01:20:48;;;;;;;0.00;0.00;;;;;;;22.47;76.85;99758.50;4996135;28;20551;-79
2023/09/18 01:23:13;;;;;;;0.00;0.00;;;;;;;22.45;76.81;99746.19;4995137;28;20206;-79
2023/09/18 01:25:39;;;;;;;0.00;0.00;;;;;;;22.41;76.61;99742.63;4994965;28;20210;-79
2023/09/18 01:28:04;;;;;;;0.00;0.00;;;;;;;22.46;76.85;99745.00;4996244;28;20200;-79
2023/09/18 01:30:29;;;;;;;0.00;0.00;;;;;;;22.45;76.87;99743.41;4994231;28;20194;-79
2023/09/18 01:32:58;;;;;;;0.00;0.00;;;;;;;22.44;76.57;99750.97;4995302;28;20214;-78
2023/09/18 01:35:29;;;;;;;0.43;0.43;;;;;;;22.29;77.04;99740.34;4993993;28;20275;-78
2023/09/18 01:37:56;;;;;;;0.00;0.00;;;;;;;22.13;77.06;99726.91;4995409;28;20200;-79
2023/09/18 01:40:23;;;;;;;0.00;0.00;;;;;;;22.35;76.96;99738.69;4995215;28;20194;-79
2023/09/18 01:42:48;;;;;;;0.00;0.00;;;;;;;22.33;76.72;99735.53;4994854;28;20213;-79
2023/09/18 01:45:14;;;;;;;0.00;0.00;;;;;;;22.06;77.53;99718.63;4995187;28;20232;-79
2023/09/18 01:47:39;;;;;;;0.47;0.47;;;;;;;21.08;80.97;99713.78;4993690;28;20667;-79
2023/09/18 01:50:05;;;;;;;0.00;0.00;;;;;;;21.30;82.56;99726.47;4994394;28;20344;-79
2023/09/18 01:52:31;;;;;;;0.00;0.00;;;;;;;21.60;81.60;99736.31;4994887;28;20204;-79
2023/09/18 01:54:56;;;;;;;0.00;0.00;;;;;;;21.77;80.15;99724.31;4994770;28;20187;-79
2023/09/18 01:57:21;;;;;;;0.00;0.00;;;;;;;21.22;81.56;99699.88;4993234;28;20195;-78
2023/09/18 01:59:47;;;;;;;0.00;0.00;;;;;;;21.49;81.46;99711.31;4993658;28;20644;-79
2023/09/18 02:02:12;;;;;;;0.00;0.00;;;;;;;21.34;81.89;99707.81;4994974;28;20185;-79
2023/09/18 02:04:38;;;;;;;0.00;0.00;;;;;;;20.97;83.53;99705.47;4994671;28;20205;-79
2023/09/18 02:07:03;;;;;;;0.00;0.00;;;;;;;21.13;83.80;99716.19;4996411;28;20191;-79
2023/09/18 02:09:29;;;;;;;0.00;0.00;;;;;;;21.29;83.59;99718.53;4994212;28;20651;-79
2023/09/18 02:11:54;;;;;;;0.00;0.00;;;;;;;21.57;82.56;99724.00;4996933;28;20188;-78
2023/09/18 02:14:19;;;;;;;0.00;0.00;;;;;;;21.75;81.33;99717.56;4995953;28;20873;-79
2023/09/18 02:16:45;;;;;;;0.00;0.00;;;;;;;21.50;81.62;99698.22;4995334;28;20268;-79
2023/09/18 02:19:13;;;;;;;0.00;0.00;;;;;;;21.47;81.82;99693.47;4994707;28;20569;-78
2023/09/18 02:21:39;;;;;;;0.00;0.00;;;;;;;21.14;82.35;99689.97;4995526;28;20185;-78
2023/09/18 02:24:04;;;;;;;0.00;0.00;;;;;;;20.95;82.76;99668.19;4993836;28;20215;-79
2023/09/18 02:26:30;;;;;;;0.00;0.00;;;;;;;20.84;84.04;99673.00;4996331;28;20193;-79
2023/09/18 02:28:59;;;;;;;0.00;0.00;;;;;;;20.84;84.67;99689.66;4994998;28;20243;-79
2023/09/18 02:31:24;;;;;;;0.30;0.30;;;;;;;20.80;84.91;99684.09;4994929;28;20189;-79
2023/09/18 02:33:49;;;;;;;0.00;0.00;;;;;;;20.94;84.50;99686.84;4994663;28;20579;-78
2023/09/18 02:36:15;;;;;;;0.00;0.00;;;;;;;21.16;84.00;99690.38;4994852;28;20268;-79
2023/09/18 02:38:41;;;;;;;0.00;0.00;;;;;;;21.10;83.71;99670.53;4995112;28;20566;-79
2023/09/18 02:41:06;;;;;;;0.00;0.00;;;;;;;21.07;83.84;99673.31;4994431;28;20201;-79
2023/09/18 02:43:31;;;;;;;0.13;0.13;;;;;;;21.08;83.40;99664.59;4993494;28;20209;-79
2023/09/18 02:45:57;;;;;;;0.00;0.00;;;;;;;21.23;83.06;99670.09;4994483;28;20209;-79
2023/09/18 02:48:22;;;;;;;0.00;0.00;;;;;;;21.22;83.00;99669.31;4994289;28;20189;-79
2023/09/18 02:50:47;;;;;;;0.00;0.00;;;;;;;20.44;85.06;99636.16;4992454;28;20204;-78
2023/09/18 02:53:31;;;;;;;0.00;0.00;;;;;;;20.47;86.83;99654.78;4994357;28;20715;-79
2023/09/18 02:55:58;;;;;;;0.10;0.10;;;;;;;20.51;87.49;99658.34;4994231;28;20184;-77
2023/09/18 02:58:25;;;;;;;0.00;0.00;;;;;;;20.56;86.87;99657.97;4994061;28;20545;-79
2023/09/18 03:00:53;;;;;;;0.00;0.00;;;;;;;20.78;86.25;99670.59;4993352;28;20185;-79
2023/09/18 03:03:19;;;;;;;0.00;0.00;;;;;;;20.84;85.64;99653.56;4992297;28;20204;-79
2023/09/18 03:05:44;;;;;;;0.00;0.00;;;;;;;20.98;84.93;99653.53;4992308;28;20221;-79
2023/09/18 03:08:11;;;;;;;0.00;0.00;;;;;;;20.86;84.82;99642.84;4993487;28;20769;-78
2023/09/18 03:10:41;;;;;;;0.00;0.00;;;;;;;20.94;84.51;99641.63;4994833;28;20725;-78
2023/09/18 03:13:07;;;;;;;0.37;0.30;;;;;;;20.98;84.23;99637.66;4995017;28;20209;-79
2023/09/18 03:15:34;;;;;;;0.00;0.00;;;;;;;21.05;83.68;99634.84;4995155;28;20250;-79
2023/09/18 03:18:00;;;;;;;0.00;0.00;;;;;;;21.03;83.71;99630.88;4994385;28;20192;-79
2023/09/18 03:20:27;;;;;;;0.00;0.00;;;;;;;21.06;83.53;99633.63;4992445;28;20239;-79
2023/09/18 03:22:54;;;;;;;0.53;0.53;;;;;;;21.18;83.24;99637.97;4993016;28;20232;-79
2023/09/18 03:25:20;;;;;;;0.20;0.20;;;;;;;21.17;82.77;99636.38;4993433;28;20201;-79
2023/09/18 03:27:45;;;;;;;0.00;0.00;;;;;;;21.15;82.43;99630.44;4994359;28;20643;-77
2023/09/18 03:30:12;;;;;;;0.00;0.00;;;;;;;20.91;82.90;99615.44;4992079;28;20217;-79
2023/09/18 03:32:38;;;;;;;0.00;0.00;;;;;;;21.03;83.15;99617.78;4993775;28;20209;-79
2023/09/18 03:35:04;;;;;;;0.00;0.00;;;;;;;20.77;83.94;99604.38;4992239;28;20196;-76
2023/09/18 03:37:29;;;;;;;0.00;0.00;;;;;;;20.59;83.76;99592.53;4992553;28;20726;-78
2023/09/18 03:39:54;;;;;;;0.00;0.00;;;;;;;20.57;85.38;99587.38;4993292;28;20184;-79
2023/09/18 03:42:20;;;;;;;0.00;0.00;;;;;;;20.82;85.07;99601.19;4996245;28;20220;-77
2023/09/18 03:44:45;;;;;;;0.00;0.00;;;;;;;20.41;86.37;99579.47;4997077;28;20205;-79
2023/09/18 03:47:10;;;;;;;0.00;0.00;;;;;;;20.31;87.38;99573.91;4997161;28;20216;-79
2023/09/18 03:49:35;;;;;;;0.00;0.00;;;;;;;20.84;86.48;99596.03;4996744;28;20256;-79
2023/09/18 03:52:01;;;;;;;0.00;0.00;;;;;;;20.87;85.32;99575.00;4995303;28;20181;-79
2023/09/18 03:54:26;;;;;;;0.00;0.00;;;;;;;21.08;84.54;99588.78;4997363;28;20202;-77
2023/09/18 03:56:51;;;;;;;0.00;0.00;;;;;;;20.98;84.21;99575.75;4996881;28;20200;-79
2023/09/18 03:59:17;;;;;;;0.00;0.00;;;;;;;20.82;84.25;99555.97;4994731;28;20180;-78
2023/09/18 04:01:42;;;;;;;0.00;0.00;;;;;;;20.55;85.35;99552.91;4996633;28;20187;-78
2023/09/18 04:04:07;;;;;;;1.17;1.17;;;;;;;20.61;85.75;99559.59;4996347;28;20201;-79
2023/09/18 04:06:37;;;;;;;0.00;0.00;;;;;;;20.88;85.46;99560.72;4996624;28;20177;-78
2023/09/18 04:09:03;;;;;;;0.00;0.00;;;;;;;21.26;83.78;99570.06;4996337;28;20189;-78
2023/09/18 04:11:31;;;;;;;0.00;0.00;;;;;;;21.50;82.48;99559.22;4997714;28;20189;-79
2023/09/18 04:13:57;;;;;;;0.37;0.37;;;;;;;21.32;82.19;99543.47;4997335;28;20201;-79
2023/09/18 04:16:22;;;;;;;0.00;0.00;;;;;;;21.53;81.46;99547.28;4997135;28;20192;-78
2023/09/18 04:18:47;;;;;;;0.00;0.00;;;;;;;21.66;81.11;99540.06;4997669;28;20188;-79
2023/09/18 04:21:13;;;;;;;0.00;0.00;;;;;;;21.75;80.21;99545.16;4995488;28;20665;-79
2023/09/18 04:23:38;;;;;;;0.00;0.00;;;;;;;21.87;79.04;99534.34;4997284;28;20263;-79
2023/09/18 04:26:03;;;;;;;0.00;0.00;;;;;;;22.01;78.72;99546.56;4996373;28;20216;-78
2023/09/18 04:28:29;;;;;;;0.00;0.00;;;;;;;21.85;78.65;99520.06;4996515;28;20185;-79
2023/09/18 04:30:54;;;;;;;0.00;0.00;;;;;;;21.45;80.13;99498.53;4995913;28;20604;-79
2023/09/18 04:33:21;;;;;;;0.00;0.00;;;;;;;21.59;80.21;99496.44;4994576;28;20586;-79
2023/09/18 04:35:46;;;;;;;0.00;0.00;;;;;;;21.67;79.72;99494.38;4992205;28;20339;-79
2023/09/18 04:38:12;;;;;;;0.97;0.97;;;;;;;21.46;80.45;99483.44;4996221;28;20245;-77
2023/09/18 04:40:37;;;;;;;0.27;0.27;;;;;;;21.30;80.96;99470.03;4995904;28;20264;-78
2023/09/18 04:43:05;;;;;;;0.37;0.37;;;;;;;21.37;81.31;99473.56;4995670;28;20209;-78
2023/09/18 04:45:31;;;;;;;0.00;0.00;;;;;;;21.25;81.41;99457.34;4994252;28;20201;-79
2023/09/18 04:47:57;;;;;;;0.40;0.37;;;;;;;21.23;81.39;99448.63;4995792;28;20216;-78
2023/09/18 04:50:22;;;;;;;0.00;0.00;;;;;;;21.06;81.19;99432.88;4995278;28;20212;-77
2023/09/18 04:52:48;;;;;;;0.00;0.00;;;;;;;21.13;81.40;99443.16;4994279;28;20193;-79
2023/09/18 04:55:14;;;;;;;0.00;0.00;;;;;;;21.46;80.66;99452.84;4994246;28;20182;-77
2023/09/18 04:57:39;;;;;;;0.00;0.00;;;;;;;21.58;80.01;99452.38;4995476;28;20207;-78
2023/09/18 05:00:08;;;;;;;0.00;0.00;;;;;;;21.81;79.10;99460.88;4995725;28;20192;-78
2023/09/18 05:02:34;;;;;;;0.00;0.00;;;;;;;21.59;78.73;99423.38;4996103;28;20205;-79
2023/09/18 05:05:00;;;;;;;0.00;0.00;;;;;;;21.91;78.54;99448.88;4997052;28;20247;-79
2023/09/18 05:07:25;;;;;;;0.00;0.00;;;;;;;21.95;77.66;99429.34;4997175;28;20237;-78
2023/09/18 05:09:50;;;;;;;0.10;0.10;;;;;;;22.20;76.75;99438.25;4998819;28;20173;-79
2023/09/18 05:12:16;;;;;;;0.00;0.00;;;;;;;22.42;75.75;99438.81;4997052;28;20189;-79
2023/09/18 05:14:41;;;;;;;0.30;0.30;;;;;;;22.48;75.60;99423.22;4995406;28;20196;-78
2023/09/18 05:17:11;;;;;;;1.30;1.20;;;;;;;22.68;74.92;99439.28;4996400;28;20193;-78
2023/09/18 05:19:36;;;;;;;0.00;0.00;;;;;;;22.62;74.40;99425.03;4994972;28;20720;-79
2023/09/18 05:22:01;;;;;;;1.30;1.30;;;;;;;22.71;74.19;99446.78;4996703;28;20272;-77
2023/09/18 05:24:27;;;;;;;0.33;0.33;;;;;;;23.01;73.18;99457.97;4996596;28;20236;-78
2023/09/18 05:26:53;;;;;;;1.30;1.10;;;;;;;22.77;73.97;99453.47;4996028;28;20240;-78
2023/09/18 05:29:19;;;;;;;0.40;0.40;;;;;;;22.48;74.23;99430.78;4995630;28;20652;-79
2023/09/18 05:31:45;;;;;;;0.00;0.00;;;;;;;22.74;74.31;99454.31;4996026;28;20228;-77
2023/09/18 05:34:11;;;;;;;0.83;0.70;;;;;;;22.84;74.06;99461.75;4996233;28;20287;-78
2023/09/18 05:36:36;;;;;;;0.00;0.00;;;;;;;23.18;73.11;99463.69;4995078;28;20281;-78
2023/09/18 05:39:02;;;;;;;0.00;0.00;;;;;;;23.31;71.86;99464.69;4994113;28;20183;-79
2023/09/18 05:41:28;;;;;;;0.00;0.00;;;;;;;23.11;72.34;99440.28;4995534;28;20197;-77
2023/09/18 05:43:55;;;;;;;0.00;0.00;;;;;;;22.95;73.24;99445.69;4994039;28;20309;-78
2023/09/18 05:46:20;;;;;;;0.17;0.17;;;;;;;22.85;74.15;99432.69;4995661;28;20201;-79
2023/09/18 05:48:45;;;;;;;0.30;0.30;;;;;;;23.08;73.25;99432.78;4996122;28;20192;-79
2023/09/18 05:51:10;;;;;;;0.00;0.00;;;;;;;23.32;72.80;99446.75;4993744;28;20242;-79
2023/09/18 05:53:37;;;;;;;0.23;0.23;;;;;;;23.38;71.94;99429.13;4994933;28;20683;-79
2023/09/18 05:56:03;;;;;;;0.10;0.10;;;;;;;23.69;70.74;99431.81;4993827;28;20198;-78
2023/09/18 05:58:32;;;;;;;0.57;0.57;;;;;;;23.49;71.42;99419.78;4995597;28;20220;-77
2023/09/18 06:01:01;;;;;;;0.07;0.07;;;;;;;23.61;70.26;99388.53;4993100;28;20244;-79
2023/09/18 06:03:27;;;;;;;1.80;1.70;;;;;;;23.21;71.01;99390.38;4994422;28;20206;-80
2023/09/18 06:05:52;;;;;;;0.00;0.00;;;;;;;23.31;71.83;99403.38;4994651;28;20202;-79
2023/09/18 06:08:18;;;;;;;0.80;0.80;;;;;;;23.73;70.39;99419.41;4994644;28;20548;-79
2023/09/18 06:10:44;;;;;;;1.10;1.00;;;;;;;23.55;70.35;99395.78;4994144;28;20182;-79
2023/09/18 06:13:10;;;;;;;0.00;0.00;;;;;;;23.47;70.84;99377.63;4995020;28;20213;-78
2023/09/18 06:15:35;;;;;;;0.00;0.00;;;;;;;23.42;70.81;99348.19;4994227;28;20545;-78
2023/09/18 06:18:01;;;;;;;0.00;0.00;;;;;;;23.56;70.59;99349.94;4994301;28;20186;-79
2023/09/18 06:20:26;;;;;;;2.47;1.63;;;;;;;23.52;70.24;99338.88;4993936;28;20203;-79
2023/09/18 06:22:51;;;;;;;0.97;0.97;;;;;;;23.37;70.66;99323.59;4994240;28;20199;-78
2023/09/18 06:25:17;;;;;;;1.23;1.13;;;;;;;23.16;70.77;99324.78;4993980;28;20206;-79
2023/09/18 06:27:42;;;;;;;0.40;0.40;;;;;;;23.32;70.95;99326.91;4994336;28;20185;-78
2023/09/18 06:30:08;;;;;;;0.10;0.10;;;;;;;23.24;71.58;99319.84;4992135;28;20186;-79
2023/09/18 06:32:33;;;;;;;0.00;0.00;;;;;;;23.30;71.33;99318.16;4992760;28;20209;-80
2023/09/18 06:35:00;;;;;;;0.73;0.67;;;;;;;23.48;71.37;99323.41;4993936;28;20195;-79
2023/09/18 06:37:25;;;;;;;1.00;1.00;;;;;;;23.53;70.89;99325.72;4990781;28;20188;-80
2023/09/18 06:39:51;;;;;;;1.30;1.30;;;;;;;23.60;70.82;99340.34;4992934;28;20181;-80
2023/09/18 06:42:17;;;;;;;0.00;0.00;;;;;;;23.56;71.24;99325.63;4993600;28;20191;-79
2023/09/18 06:44:42;;;;;;;0.00;0.00;;;;;;;23.54;71.01;99324.50;4992394;28;20682;-79
2023/09/18 06:47:07;;;;;;;0.00;0.00;;;;;;;23.57;71.25;99307.72;4993000;28;20667;-80
2023/09/18 06:49:33;;;;;;;0.60;0.37;;;;;;;23.36;71.72;99311.66;4992957;28;20273;-79
2023/09/18 06:51:59;;;;;;;1.03;0.93;;;;;;;23.28;72.08;99321.34;4991844;28;20187;-79
2023/09/18 06:54:24;;;;;;;0.33;0.30;;;;;;;23.45;71.80;99331.44;4993379;28;20569;-80
2023/09/18 06:56:50;;;;;;;0.00;0.00;;;;;;;23.39;71.42;99310.03;4991992;28;20186;-79
2023/09/18 06:59:15;;;;;;;0.37;0.37;;;;;;;23.61;71.17;99327.97;4989834;28;20222;-80
2023/09/18 07:01:41;;;;;;;0.20;0.20;;;;;;;23.71;71.04;99320.59;4990459;28;20185;-81
2023/09/18 07:04:07;;;;;;;4.23;2.53;;;;;;;23.74;70.61;99326.13;4990831;28;20235;-80
2023/09/18 07:06:32;;;;;;;0.37;0.37;;;;;;;23.52;70.70;99312.97;4999252;28;20565;-79
2023/09/18 07:08:57;;;;;;;0.00;0.00;;;;;;;23.67;70.36;99309.53;4992604;28;20662;-81
2023/09/18 07:11:22;;;;;;;0.47;0.47;;;;;;;23.67;70.74;99328.25;4991158;28;20217;-80
2023/09/18 07:13:48;;;;;;;0.37;0.37;;;;;;;23.70;70.32;99342.13;4994491;28;20214;-79
2023/09/18 07:16:13;;;;;;;0.10;0.10;;;;;;;23.74;70.61;99342.09;4996744;28;20638;-83
2023/09/18 07:18:39;;;;;;;0.00;0.00;;;;;;;23.88;69.83;99338.25;4999683;28;20199;-82
2023/09/18 07:21:04;;;;;;;0.10;0.10;;;;;;;23.85;69.93;99328.69;4996427;28;20676;-79
2023/09/18 07:23:30;;;;;;;0.00;0.00;;;;;;;23.99;69.70;99347.16;4996863;28;20203;-78
2023/09/18 07:25:55;;;;;;;0.23;0.23;;;;;;;23.97;69.39;99344.00;4995622;28;20215;-78
2023/09/18 07:28:20;;;;;;;0.07;0.07;;;;;;;24.03;68.74;99345.91;4997237;28;20226;-77
2023/09/18 07:30:47;;;;;;;1.80;1.70;;;;;;;23.64;69.49;99301.22;4997188;28;20641;-79
2023/09/18 07:33:15;;;;;;;0.00;0.00;;;;;;;24.23;69.14;99345.88;4998063;28;20300;-78
2023/09/18 07:35:41;;;;;;;0.03;0.03;;;;;;;24.15;68.16;99324.91;4998226;28;20179;-79
2023/09/18 07:38:06;;;;;;;1.23;1.17;;;;;;;23.97;68.23;99321.69;4997630;28;20195;-77
2023/09/18 07:40:31;;;;;;;0.47;0.47;;;;;;;24.35;67.48;99333.28;4996102;28;20213;-79
2023/09/18 07:42:56;;;;;;;0.40;0.40;;;;;;;24.15;68.05;99332.47;4997885;28;20621;-79
2023/09/18 07:45:23;;;;;;;0.17;0.17;;;;;;;24.33;66.82;99341.31;4996437;28;20211;-81
2023/09/18 07:47:49;;;;;;;9.33;0.60;;;;;;;24.12;67.44;99342.50;4992964;28;20194;-78
2023/09/18 07:50:14;;;;;;;0.90;0.87;;;;;;;24.29;67.23;99340.56;4990791;28;20190;-79
2023/09/18 07:52:39;;;;;;;0.20;0.10;;;;;;;24.73;65.99;99358.75;4981381;28;20215;-78
2023/09/18 07:55:05;;;;;;;0.10;0.10;;;;;;;24.52;66.74;99340.50;4982085;28;20190;-77
2023/09/18 07:57:32;;;;;;;0.00;0.00;;;;;;;24.34;67.18;99340.09;4981774;28;20196;-78
2023/09/18 07:59:58;;;;;;;0.00;0.00;;;;;;;24.30;67.45;99342.97;4981718;28;20660;-78
2023/09/18 08:02:24;;;;;;;0.67;0.30;;;;;;;24.30;67.45;99336.56;4980067;28;20190;-77
2023/09/18 08:04:50;;;;;;;1.87;1.67;;;;;;;24.35;67.43;99336.09;4983123;28;20730;-79
2023/09/18 08:07:15;;;;;;;0.00;0.00;;;;;;;24.46;67.53;99347.03;4996644;28;20213;-78
2023/09/18 08:09:41;;;;;;;1.07;1.07;;;;;;;24.41;67.31;99334.34;4996773;28;20187;-79
2023/09/18 08:12:08;;;;;;;0.20;0.20;;;;;;;24.68;67.11;99352.91;4996586;28;20187;-82
2023/09/18 08:14:36;;;;;;;1.63;1.63;;;;;;;24.66;66.82;99356.16;4996319;28;20729;-83
2023/09/18 08:17:02;;;;;;;1.80;1.43;;;;;;;24.48;66.82;99355.75;4997906;28;20186;-77
2023/09/18 08:19:28;;;;;;;3.47;1.97;;;;;;;24.35;67.43;99349.25;4995954;28;20188;-81
2023/09/18 08:21:57;;;;;;;2.70;2.10;;;;;;;24.43;67.18;99353.47;4998088;28;20194;-84
2023/09/18 08:24:22;;;;;;;0.10;0.10;;;;;;;24.66;66.61;99364.53;4998109;28;20703;-83
2023/09/18 08:26:49;;;;;;;2.00;1.83;;;;;;;24.48;67.33;99367.72;4998508;28;20178;-82
2023/09/18 08:29:15;;;;;;;0.47;0.47;;;;;;;24.71;66.65;99377.97;4997680;28;20185;-82
2023/09/18 08:31:40;;;;;;;0.27;0.27;;;;;;;24.51;66.65;99349.31;4999044;28;20187;-83
2023/09/18 08:34:05;;;;;;;0.10;0.10;;;;;;;24.75;66.71;99363.94;4997349;28;20231;-81
2023/09/18 08:36:31;;;;;;;0.13;0.13;;;;;;;25.04;66.06;99375.28;4994894;28;20662;-81
2023/09/18 08:38:57;;;;;;;0.00;0.00;;;;;;;24.94;66.01;99360.28;4994516;28;20191;-79
2023/09/18 08:41:26;;;;;;;1.73;1.63;;;;;;;24.75;66.43;99356.34;4994966;28;20199;-80
2023/09/18 08:43:56;;;;;;;1.70;1.60;;;;;;;25.02;65.84;99360.91;4995260;28;20613;-79
2023/09/18 08:46:22;;;;;;;1.17;1.07;;;;;;;24.87;65.64;99355.63;4995026;28;20694;-79
2023/09/18 08:48:49;;;;;;;1.93;1.83;;;;;;;24.80;66.12;99344.63;4994656;28;20183;-79
2023/09/18 08:51:18;;;;;;;1.07;1.00;;;;;;;24.92;65.52;99352.34;4994520;28;20199;-78
2023/09/18 08:53:44;;;;;;;1.07;1.07;;;;;;;24.93;65.61;99341.94;4993498;28;20578;-77
2023/09/18 08:56:10;;;;;;;0.77;0.77;;;;;;;25.16;65.54;99369.75;4993350;28;20694;-79
2023/09/18 08:58:39;;;;;;;1.00;1.00;;;;;;;25.15;64.85;99365.38;4994630;28;20187;-78
2023/09/18 09:01:09;;;;;;;0.10;0.10;;;;;;;25.37;64.41;99362.84;4994386;28;20249;-79
2023/09/18 09:03:38;;;;;;;0.60;0.60;;;;;;;25.22;64.45;99350.44;4994907;28;20227;-79
2023/09/18 09:06:05;;;;;;;22.33;1.23;;;;;;;25.16;64.81;99347.38;4995548;28;20741;-79
2023/09/18 09:08:31;;;;;;;1.13;1.13;;;;;;;25.11;64.62;99335.94;4995022;28;20654;-80
2023/09/18 09:10:57;;;;;;;2.70;1.20;;;;;;;25.18;64.41;99347.75;4993203;28;20189;-79
2023/09/18 09:13:26;;;;;;;1.37;0.43;;;;;;;25.26;64.94;99361.53;4995153;28;20220;-80
2023/09/18 09:15:55;;;;;;;2.97;1.03;;;;;;;25.21;64.84;99362.88;4993780;28;20184;-80
2023/09/18 09:18:22;;;;;;;0.93;0.60;;;;;;;25.25;65.32;99357.19;4993647;28;20198;-80
2023/09/18 09:20:54;;;;;;;2.50;0.70;;;;;;;25.17;65.08;99348.16;4989555;28;20182;-80
2023/09/18 09:23:19;;;;;;;1.90;1.40;;;;;;;24.99;65.28;99342.19;4991450;28;20203;-79
2023/09/18 09:25:44;;;;;;;0.37;0.37;;;;;;;25.23;65.20;99360.41;4980721;28;20248;-79
2023/09/18 09:28:10;;;;;;;1.80;1.10;;;;;;;25.12;65.46;99343.09;4985550;28;20188;-80
2023/09/18 09:30:36;;;;;;;0.93;0.90;;;;;;;25.44;64.47;99379.44;4983746;28;20189;-80
2023/09/18 09:33:04;;;;;;;23.23;1.33;;;;;;;25.68;64.92;99407.22;4994071;28;20296;-79
2023/09/18 09:35:33;;;;;;;0.63;0.37;;;;;;;25.52;64.65;99383.63;4994400;28;20210;-80
2023/09/18 09:38:08;;;;;;;1.37;0.83;;;;;;;25.37;65.09;99370.44;4994414;28;20188;-78
2023/09/18 09:40:35;;;;;;;2.07;1.33;;;;;;;25.39;64.45;99354.03;4989786;28;20183;-79
2023/09/18 09:43:01;;;;;;;4.43;2.10;;;;;;;25.06;64.91;99334.47;4994464;28;20211;-80
2023/09/18 09:45:35;;;;;;;1.97;1.20;;;;;;;24.89;65.40;99346.84;4992086;28;20226;-80
2023/09/18 09:48:02;;;;;;;2.63;1.53;;;;;;;24.78;65.57;99349.09;4991286;28;20249;-80
2023/09/18 09:50:28;;;;;;;1.50;1.23;;;;;;;24.88;65.45;99350.84;4993516;28;20189;-79
2023/09/18 09:52:54;;;;;;;0.00;0.00;;;;;;;24.93;64.61;99333.56;4993629;28;20211;-79
2023/09/18 09:55:21;;;;;;;0.67;0.60;;;;;;;25.07;64.88;99343.66;4994068;28;20190;-79
2023/09/18 09:57:51;;;;;;;3.77;1.73;;;;;;;24.78;64.93;99335.13;4994315;28;20653;-79
2023/09/18 10:00:36;;;;;;;6.17;2.27;;;;;;;24.74;65.62;99346.38;4992708;28;20605;-79
2023/09/18 10:03:04;;;;;;;0.50;0.50;;;;;;;25.01;65.52;99370.53;4993921;28;20204;-79
2023/09/18 10:05:35;;;;;;;1.03;1.03;;;;;;;24.85;65.68;99352.50;4994291;28;20203;-79
2023/09/18 10:08:15;;;;;;;2.50;1.03;;;;;;;24.73;65.38;99344.00;4988417;28;20181;-79
2023/09/18 10:10:53;;;;;;;0.20;0.10;;;;;;;25.07;65.54;99369.59;4990920;28;20183;-80
2023/09/18 10:13:23;;;;;;;6.33;1.17;;;;;;;25.05;64.66;99354.47;4994960;28;20208;-79
2023/09/18 10:15:53;;;;;;;2.53;0.87;;;;;;;25.43;64.28;99375.06;4993916;28;20188;-78
2023/09/18 10:18:24;;;;;;;1.00;0.90;;;;;;;25.08;64.25;99354.38;4995507;28;20228;-79
2023/09/18 10:20:54;;;;;;;0.10;0.10;;;;;;;25.12;64.10;99357.88;4992645;28;20242;-80
2023/09/18 10:23:34;;;;;;;4.57;1.67;;;;;;;24.83;64.83;99331.81;4986240;28;20207;-77
2023/09/18 10:26:03;;;;;;;1.77;1.43;;;;;;;24.85;64.90;99341.31;4994712;28;20206;-77
2023/09/18 10:28:30;;;;;;;8.60;1.90;;;;;;;24.67;65.07;99340.16;4993239;28;20698;-79
2023/09/18 10:30:57;;;;;;;4.67;1.73;;;;;;;25.07;64.74;99358.41;4991754;28;20280;-80
2023/09/18 10:33:23;;;;;;;6.37;0.93;;;;;;;25.25;63.91;99357.97;4992843;28;20271;-82
2023/09/18 10:35:50;;;;;;;1.63;1.07;;;;;;;25.32;63.96;99355.00;4993322;28;20709;-80
2023/09/18 10:38:17;;;;;;;2.13;1.40;;;;;;;25.30;64.22;99384.59;4994825;28;20186;-80
2023/09/18 10:40:43;;;;;;;1.93;0.87;;;;;;;24.97;64.57;99345.44;4994345;28;20195;-80
2023/09/18 10:43:11;;;;;;;2.70;1.40;;;;;;;24.65;65.62;99345.41;4994906;28;20623;-80
2023/09/18 10:45:37;;;;;;;2.73;1.73;;;;;;;24.39;66.02;99347.97;4995164;28;20224;-79
2023/09/18 10:48:04;;;;;;;7.13;0.90;;;;;;;24.44;65.91;99363.41;4994972;28;20189;-80
2023/09/18 10:50:29;;;;;;;0.90;0.67;;;;;;;24.71;66.05;99379.97;4993219;28;20219;-78
2023/09/18 10:52:57;;;;;;;1.70;1.33;;;;;;;24.87;64.95;99371.63;4994718;28;20211;-80
2023/09/18 10:55:24;;;;;;;0.00;0.00;;;;;;;25.26;64.59;99387.50;4995338;28;20173;-79
2023/09/18 10:57:54;;;;;;;0.27;0.27;;;;;;;25.17;64.81;99390.91;4992662;28;20635;-79
2023/09/18 11:00:25;;;;;;;7.17;1.10;;;;;;;25.09;64.97;99388.72;4994144;28;20237;-79
2023/09/18 11:02:54;;;;;;;3.87;1.50;;;;;;;24.81;65.07;99388.13;4992977;28;20221;-78
2023/09/18 11:06:01;;;;;;;6.03;1.87;;;;;;;24.72;65.74;99406.69;4994512;28;20210;-79
2023/09/18 11:08:33;;;;;;;5.43;1.23;;;;;;;24.58;66.11;99413.38;4983468;28;20669;-79
2023/09/18 11:11:11;;;;;;;2.17;1.37;;;;;;;24.78;65.66;99424.53;4993716;28;20188;-78
2023/09/18 11:13:42;;;;;;;4.73;1.37;;;;;;;25.02;65.57;99442.75;4993590;28;20693;-79
2023/09/18 11:16:27;;;;;;;1.10;1.10;;;;;;;25.12;65.27;99418.59;4992703;28;20226;-79
2023/09/18 11:18:58;;;;;;;40.57;1.70;;;;;;;25.26;65.54;99426.63;4993986;28;20275;-78
2023/09/18 11:21:34;;;;;;;1.17;1.13;;;;;;;25.12;65.32;99399.03;4993747;28;20724;-80
2023/09/18 11:24:11;;;;;;;2.27;1.83;;;;;;;24.75;65.88;99406.63;4993672;28;20298;-79
2023/09/18 11:26:47;;;;;;;1.90;1.23;;;;;;;25.03;65.51;99407.25;4993360;28;20192;-79
2023/09/18 11:29:23;;;;;;;1.37;1.13;;;;;;;24.64;65.59;99394.91;4988006;28;20188;-78
2023/09/18 11:31:56;;;;;;;1.07;0.93;;;;;;;25.12;65.51;99407.41;4992009;28;20187;-79
2023/09/18 11:34:26;;;;;;;1.37;0.80;;;;;;;24.84;65.35;99403.22;4988240;28;20226;-79